sensor_id;sensor_type;location;lat;lon;timestamp;pressure;altitude;pressure_sealevel;temperature;humidity
24610;BME280;12758;47.890;11.694;2023-03-04T00:01:06;94115.78;;;2.01;100.00
24610;BME280;12758;47.890;11.694;2023-03-04T00:03:33;94117.94;;;2.09;100.00
24610;BME280;12758;47.890;11.694;2023-03-04T00:05:59;94122.75;;;2.12;100.00
24610;BME280;12758;47.890;11.694;2023-03-04T00:08:25;94116.84;;;2.15;100.00
24610;BME280;12758;47.890;11.694;2023-03-04T00:10:51;94122.72;;;2.17;100.00
24610;BME280;12758;47.890;11.694;2023-03-04T00:13:17;94129.44;;;2.20;100.00
24610;BME280;12758;47.890;11.694;2023-03-04T00:15:45;94120.31;;;2.21;100.00
24610;BME280;12758;47.890;11.694;2023-03-04T00:18:11;94127.00;;;2.18;100.00
24610;BME280;12758;47.890;11.694;2023-03-04T00:20:37;94126.47;;;2.01;100.00
24610;BME280;12758;47.890;11.694;2023-03-04T00:23:03;94124.34;;;1.88;100.00
24610;BME280;12758;47.890;11.694;2023-03-04T00:25:29;94123.78;;;1.65;100.00
24610;BME280;12758;47.890;11.694;2023-03-04T00:27:55;94126.69;;;1.53;100.00
24610;BME280;12758;47.890;11.694;2023-03-04T00:30:23;94121.63;;;1.57;100.00
24610;BME280;12758;47.890;11.694;2023-03-04T00:32:49;94129.13;;;1.65;100.00
24610;BME280;12758;47.890;11.694;2023-03-04T00:35:15;94126.72;;;1.58;100.00
24610;BME280;12758;47.890;11.694;2023-03-04T00:37:41;94122.44;;;1.73;100.00
24610;BME280;12758;47.890;11.694;2023-03-04T00:40:08;94124.34;;;1.88;100.00
24610;BME280;12758;47.890;11.694;2023-03-04T00:42:34;94123.25;;;1.63;100.00
24610;BME280;12758;47.890;11.694;2023-03-04T00:45:00;94126.69;;;1.43;100.00
24610;BME280;12758;47.890;11.694;2023-03-04T00:47:27;94128.59;;;1.58;100.00
24610;BME280;12758;47.890;11.694;2023-03-04T00:49:53;94123.25;;;1.78;100.00
24610;BME280;12758;47.890;11.694;2023-03-04T00:52:19;94127.00;;;1.72;100.00
24610;BME280;12758;47.890;11.694;2023-03-04T00:54:45;94124.84;;;1.59;100.00
24610;BME280;12758;47.890;11.694;2023-03-04T00:57:11;94120.56;;;1.58;100.00
24610;BME280;12758;47.890;11.694;2023-03-04T00:59:37;94119.47;;;1.44;100.00
24610;BME280;12758;47.890;11.694;2023-03-04T01:02:03;94124.25;;;1.31;100.00
24610;BME280;12758;47.890;11.694;2023-03-04T01:04:29;94124.28;;;1.42;100.00
24610;BME280;12758;47.890;11.694;2023-03-04T01:06:55;94120.00;;;1.46;100.00
24610;BME280;12758;47.890;11.694;2023-03-04T01:09:21;94116.78;;;1.44;100.00
24610;BME280;12758;47.890;11.694;2023-03-04T01:11:47;94116.00;;;1.43;100.00
24610;BME280;12758;47.890;11.694;2023-03-04T01:14:13;94116.84;;;1.74;100.00
24610;BME280;12758;47.890;11.694;2023-03-04T01:16:39;94114.19;;;1.90;100.00
24610;BME280;12758;47.890;11.694;2023-03-04T01:19:05;94115.78;;;1.80;100.00
24610;BME280;12758;47.890;11.694;2023-03-04T01:21:32;94102.38;;;1.75;100.00
24610;BME280;12758;47.890;11.694;2023-03-04T01:23:58;94097.28;;;1.58;100.00
24610;BME280;12758;47.890;11.694;2023-03-04T01:26:24;94094.38;;;1.91;100.00
24610;BME280;12758;47.890;11.694;2023-03-04T01:28:50;94091.69;;;1.85;100.00
24610;BME280;12758;47.890;11.694;2023-03-04T01:31:16;94095.44;;;1.95;100.00
24610;BME280;12758;47.890;11.694;2023-03-04T01:33:42;94093.53;;;2.05;100.00
24610;BME280;12758;47.890;11.694;2023-03-04T01:36:08;94095.97;;;2.07;100.00
24610;BME280;12758;47.890;11.694;2023-03-04T01:38:35;94091.97;;;1.99;100.00
24610;BME280;12758;47.890;11.694;2023-03-04T01:41:01;94094.34;;;2.11;100.00
24610;BME280;12758;47.890;11.694;2023-03-04T01:43:28;94091.97;;;2.09;100.00
24610;BME280;12758;47.890;11.694;2023-03-04T01:45:55;94095.97;;;1.92;100.00
24610;BME280;12758;47.890;11.694;2023-03-04T01:48:24;94086.59;;;2.09;100.00
24610;BME280;12758;47.890;11.694;2023-03-04T01:50:50;94083.09;;;2.24;100.00
24610;BME280;12758;47.890;11.694;2023-03-04T01:53:19;94081.50;;;2.23;100.00
24610;BME280;12758;47.890;11.694;2023-03-04T01:55:46;94080.41;;;2.24;100.00
24610;BME280;12758;47.890;11.694;2023-03-04T01:58:12;94080.41;;;2.29;100.00
24610;BME280;12758;47.890;11.694;2023-03-04T02:00:38;94078.81;;;2.08;100.00
24610;BME280;12758;47.890;11.694;2023-03-04T02:03:06;94069.19;;;2.02;100.00
24610;BME280;12758;47.890;11.694;2023-03-04T02:05:33;94060.09;;;1.82;100.00
24610;BME280;12758;47.890;11.694;2023-03-04T02:08:00;94060.13;;;1.72;100.00
24610;BME280;12758;47.890;11.694;2023-03-04T02:10:28;94059.59;;;1.65;100.00
24610;BME280;12758;47.890;11.694;2023-03-04T02:12:54;94066.53;;;1.71;100.00
24610;BME280;12758;47.890;11.694;2023-03-04T02:15:21;94061.72;;;1.63;100.00
24610;BME280;12758;47.890;11.694;2023-03-04T02:17:48;94065.19;;;1.79;100.00
24610;BME280;12758;47.890;11.694;2023-03-04T02:20:30;94060.09;;;1.82;100.00
24610;BME280;12758;47.890;11.694;2023-03-04T02:23:08;94065.47;;;1.93;100.00
24610;BME280;12758;47.890;11.694;2023-03-04T02:25:38;94060.38;;;1.86;100.00
24610;BME280;12758;47.890;11.694;2023-03-04T02:28:07;94055.28;;;2.00;100.00
24610;BME280;12758;47.890;11.694;2023-03-04T02:30:33;94048.06;;;1.90;100.00
24610;BME280;12758;47.890;11.694;2023-03-04T02:32:59;94047.53;;;1.78;100.00
24610;BME280;12758;47.890;11.694;2023-03-04T02:35:26;94049.41;;;1.72;100.00
24610;BME280;12758;47.890;11.694;2023-03-04T02:37:52;94043.78;;;1.69;100.00
24610;BME280;12758;47.890;11.694;2023-03-04T02:40:22;94042.44;;;1.92;100.00
24610;BME280;12758;47.890;11.694;2023-03-04T02:42:49;94045.66;;;1.89;100.00
24610;BME280;12758;47.890;11.694;2023-03-04T02:45:36;94041.38;;;1.98;100.00
24610;BME280;12758;47.890;11.694;2023-03-04T02:48:04;94036.03;;;1.93;100.00
24610;BME280;12758;47.890;11.694;2023-03-04T02:50:34;94038.44;;;1.99;100.00
24610;BME280;12758;47.890;11.694;2023-03-04T02:53:00;94049.13;;;2.09;100.00
24610;BME280;12758;47.890;11.694;2023-03-04T02:55:26;94043.00;;;1.83;100.00
24610;BME280;12758;47.890;11.694;2023-03-04T02:57:53;94044.31;;;1.40;100.00
24610;BME280;12758;47.890;11.694;2023-03-04T03:00:19;94039.50;;;1.42;100.00
24610;BME280;12758;47.890;11.694;2023-03-04T03:02:45;94034.94;;;1.27;100.00
24610;BME280;12758;47.890;11.694;2023-03-04T03:05:12;94041.88;;;1.18;100.00
24610;BME280;12758;47.890;11.694;2023-03-04T03:07:39;94042.44;;;1.30;100.00
24610;BME280;12758;47.890;11.694;2023-03-04T03:10:05;94040.31;;;1.43;100.00
24610;BME280;12758;47.890;11.694;2023-03-04T03:12:31;94036.28;;;1.40;100.00
24610;BME280;12758;47.890;11.694;2023-03-04T03:14:57;94037.34;;;1.24;100.00
24610;BME280;12758;47.890;11.694;2023-03-04T03:17:23;94043.47;;;1.14;100.00
24610;BME280;12758;47.890;11.694;2023-03-04T03:19:50;94052.25;;;0.99;100.00
24610;BME280;12758;47.890;11.694;2023-03-04T03:22:16;94033.84;;;1.08;100.00
24610;BME280;12758;47.890;11.694;2023-03-04T03:24:42;94038.91;;;1.04;100.00
24610;BME280;12758;47.890;11.694;2023-03-04T03:27:08;94032.16;;;0.76;100.00
24610;BME280;12758;47.890;11.694;2023-03-04T03:29:34;94033.97;;;0.55;100.00
24610;BME280;12758;47.890;11.694;2023-03-04T03:32:00;94038.16;;;0.41;100.00
24610;BME280;12758;47.890;11.694;2023-03-04T03:34:26;94034.13;;;0.33;100.00
24610;BME280;12758;47.890;11.694;2023-03-04T03:36:52;94027.13;;;0.22;100.00
24610;BME280;12758;47.890;11.694;2023-03-04T03:39:18;94036.19;;;0.21;100.00
24610;BME280;12758;47.890;11.694;2023-03-04T03:41:44;94035.69;;;0.24;100.00
24610;BME280;12758;47.890;11.694;2023-03-04T03:44:10;94028.47;;;0.19;100.00
24610;BME280;12758;47.890;11.694;2023-03-04T03:46:36;94031.66;;;0.16;100.00
24610;BME280;12758;47.890;11.694;2023-03-04T03:49:02;94034.22;;;0.06;100.00
24610;BME280;12758;47.890;11.694;2023-03-04T03:51:28;94028.09;;;0.06;100.00
24610;BME280;12758;47.890;11.694;2023-03-04T03:53:55;94034.50;;;0.05;100.00
24610;BME280;12758;47.890;11.694;2023-03-04T03:56:21;94028.31;;;-0.01;100.00
24610;BME280;12758;47.890;11.694;2023-03-04T03:58:47;94040.31;;;-0.04;100.00
24610;BME280;12758;47.890;11.694;2023-03-04T04:01:13;94034.97;;;-0.04;100.00
24610;BME280;12758;47.890;11.694;2023-03-04T04:03:39;94038.44;;;-0.08;100.00
24610;BME280;12758;47.890;11.694;2023-03-04T04:06:05;94035.50;;;-0.07;100.00
24610;BME280;12758;47.890;11.694;2023-03-04T04:08:31;94040.53;;;-0.15;100.00
24610;BME280;12758;47.890;11.694;2023-03-04T04:10:58;94037.56;;;-0.19;100.00
24610;BME280;12758;47.890;11.694;2023-03-04T04:13:24;94037.84;;;-0.15;100.00
24610;BME280;12758;47.890;11.694;2023-03-04T04:15:50;94043.44;;;-0.17;100.00
24610;BME280;12758;47.890;11.694;2023-03-04T04:18:16;94037.56;;;-0.19;100.00
24610;BME280;12758;47.890;11.694;2023-03-04T04:20:42;94038.16;;;-0.12;100.00
24610;BME280;12758;47.890;11.694;2023-03-04T04:23:09;94034.97;;;-0.04;100.00
24610;BME280;12758;47.890;11.694;2023-03-04T04:25:35;94043.03;;;0.02;100.00
24610;BME280;12758;47.890;11.694;2023-03-04T04:28:02;94038.75;;;0.01;100.00
24610;BME280;12758;47.890;11.694;2023-03-04T04:30:28;94037.97;;;0.05;100.00
24610;BME280;12758;47.890;11.694;2023-03-04T04:32:54;94041.44;;;0.06;100.00
24610;BME280;12758;47.890;11.694;2023-03-04T04:35:20;94036.66;;;0.08;100.00
24610;BME280;12758;47.890;11.694;2023-03-04T04:37:46;94031.28;;;-0.03;100.00
24610;BME280;12758;47.890;11.694;2023-03-04T04:40:13;94035.56;;;0.04;100.00
24610;BME280;12758;47.890;11.694;2023-03-04T04:42:39;94031.78;;;-0.06;100.00
24610;BME280;12758;47.890;11.694;2023-03-04T04:45:07;94029.59;;;-0.14;100.00
24610;BME280;12758;47.890;11.694;2023-03-04T04:47:33;94035.38;;;-0.27;100.00
24610;BME280;12758;47.890;11.694;2023-03-04T04:49:59;94041.09;;;-0.45;100.00
24610;BME280;12758;47.890;11.694;2023-03-04T04:52:25;94046.94;;;-0.49;100.00
24610;BME280;12758;47.890;11.694;2023-03-04T04:54:51;94051.16;;;-0.20;100.00
24610;BME280;12758;47.890;11.694;2023-03-04T04:57:17;94050.50;;;-0.38;100.00
24610;BME280;12758;47.890;11.694;2023-03-04T04:59:43;94050.84;;;-0.24;100.00
24610;BME280;12758;47.890;11.694;2023-03-04T05:02:10;94039.69;;;-0.21;100.00
24610;BME280;12758;47.890;11.694;2023-03-04T05:04:35;94041.31;;;-0.15;100.00
24610;BME280;12758;47.890;11.694;2023-03-04T05:07:02;94046.16;;;-0.12;100.00
24610;BME280;12758;47.890;11.694;2023-03-04T05:09:28;94045.69;;;0.02;100.00
24610;BME280;12758;47.890;11.694;2023-03-04T05:11:54;94050.50;;;0.05;100.00
24610;BME280;12758;47.890;11.694;2023-03-04T05:14:20;94048.53;;;0.32;100.00
24610;BME280;12758;47.890;11.694;2023-03-04T05:16:46;94045.31;;;0.35;100.00
24610;BME280;12758;47.890;11.694;2023-03-04T05:19:12;94053.94;;;0.47;100.00
24610;BME280;12758;47.890;11.694;2023-03-04T05:21:38;94043.84;;;0.60;100.00
24610;BME280;12758;47.890;11.694;2023-03-04T05:24:05;94046.31;;;0.14;100.00
24610;BME280;12758;47.890;11.694;2023-03-04T05:26:31;94047.66;;;0.21;100.00
24610;BME280;12758;47.890;11.694;2023-03-04T05:28:57;94052.25;;;0.31;100.00
24610;BME280;12758;47.890;11.694;2023-03-04T05:31:23;94054.69;;;0.33;100.00
24610;BME280;12758;47.890;11.694;2023-03-04T05:33:49;94052.84;;;0.43;100.00
24610;BME280;12758;47.890;11.694;2023-03-04T05:36:16;94053.47;;;0.61;100.00
24610;BME280;12758;47.890;11.694;2023-03-04T05:38:42;94053.44;;;0.56;100.00
24610;BME280;12758;47.890;11.694;2023-03-04T05:41:08;94047.91;;;0.67;100.00
24610;BME280;12758;47.890;11.694;2023-03-04T05:43:34;94052.41;;;0.62;100.00
24610;BME280;12758;47.890;11.694;2023-03-04T05:46:00;94058.06;;;0.76;100.00
24610;BME280;12758;47.890;11.694;2023-03-04T05:48:27;94055.56;;;0.54;100.00
24610;BME280;12758;47.890;11.694;2023-03-04T05:50:53;94050.25;;;0.64;100.00
24610;BME280;12758;47.890;11.694;2023-03-04T05:53:21;94048.44;;;0.69;100.00
24610;BME280;12758;47.890;11.694;2023-03-04T05:55:47;94047.59;;;0.64;100.00
24610;BME280;12758;47.890;11.694;2023-03-04T05:58:13;94055.91;;;0.67;100.00
24610;BME280;12758;47.890;11.694;2023-03-04T06:00:39;94058.56;;;0.62;100.00
24610;BME280;12758;47.890;11.694;2023-03-04T06:03:05;94059.09;;;0.69;100.00
24610;BME280;12758;47.890;11.694;2023-03-04T06:05:31;94065.13;;;0.39;100.00
24610;BME280;12758;47.890;11.694;2023-03-04T06:07:57;94063.63;;;0.64;100.00
24610;BME280;12758;47.890;11.694;2023-03-04T06:10:24;94070.97;;;0.94;100.00
24610;BME280;12758;47.890;11.694;2023-03-04T06:12:50;94068.56;;;1.03;100.00
24610;BME280;12758;47.890;11.694;2023-03-04T06:15:16;94073.56;;;0.79;100.00
24610;BME280;12758;47.890;11.694;2023-03-04T06:17:42;94066.38;;;0.84;100.00
24610;BME280;12758;47.890;11.694;2023-03-04T06:20:10;94074.94;;;0.86;100.00
24610;BME280;12758;47.890;11.694;2023-03-04T06:22:36;94078.69;;;0.96;100.00
24610;BME280;12758;47.890;11.694;2023-03-04T06:25:03;94077.56;;;0.71;100.00
24610;BME280;12758;47.890;11.694;2023-03-04T06:27:29;94080.03;;;0.88;100.00
24610;BME280;12758;47.890;11.694;2023-03-04T06:29:55;94089.84;;;0.72;100.00
24610;BME280;12758;47.890;11.694;2023-03-04T06:32:21;94085.56;;;0.76;100.00
24610;BME280;12758;47.890;11.694;2023-03-04T06:34:47;94094.59;;;0.60;100.00
24610;BME280;12758;47.890;11.694;2023-03-04T06:37:13;94093.41;;;0.40;100.00
24610;BME280;12758;47.890;11.694;2023-03-04T06:39:39;94092.84;;;0.33;100.00
24610;BME280;12758;47.890;11.694;2023-03-04T06:42:05;94086.13;;;0.26;100.00
24610;BME280;12758;47.890;11.694;2023-03-04T06:44:32;94087.78;;;0.37;100.00
24610;BME280;12758;47.890;11.694;2023-03-04T06:46:58;94090.97;;;0.34;100.00
24610;BME280;12758;47.890;11.694;2023-03-04T06:49:24;94092.44;;;0.52;100.00
24610;BME280;12758;47.890;11.694;2023-03-04T06:51:50;94095.09;;;0.52;100.00
24610;BME280;12758;47.890;11.694;2023-03-04T06:54:17;94095.16;;;0.62;100.00
24610;BME280;12758;47.890;11.694;2023-03-04T06:56:43;94105.34;;;0.75;100.00
24610;BME280;12758;47.890;11.694;2023-03-04T06:59:09;94097.88;;;0.77;100.00
24610;BME280;12758;47.890;11.694;2023-03-04T07:01:36;94106.94;;;0.76;100.00
24610;BME280;12758;47.890;11.694;2023-03-04T07:04:02;94106.47;;;0.89;100.00
24610;BME280;12758;47.890;11.694;2023-03-04T07:06:29;94105.38;;;0.85;100.00
24610;BME280;12758;47.890;11.694;2023-03-04T07:08:55;94104.91;;;0.99;100.00
24610;BME280;12758;47.890;11.694;2023-03-04T07:11:21;94105.19;;;1.02;100.00
24610;BME280;12758;47.890;11.694;2023-03-04T07:13:48;94105.19;;;1.07;100.00
24610;BME280;12758;47.890;11.694;2023-03-04T07:16:16;94105.47;;;1.11;100.00
24610;BME280;12758;47.890;11.694;2023-03-04T07:18:43;94104.41;;;1.12;100.00
24610;BME280;12758;47.890;11.694;2023-03-04T07:21:10;94108.13;;;1.01;100.00
24610;BME280;12758;47.890;11.694;2023-03-04T07:23:37;94101.47;;;1.13;100.00
24610;BME280;12758;47.890;11.694;2023-03-04T07:26:04;94106.28;;;1.06;100.00
24610;BME280;12758;47.890;11.694;2023-03-04T07:28:30;94112.94;;;1.04;100.00
24610;BME280;12758;47.890;11.694;2023-03-04T07:30:56;94110.53;;;1.02;100.00
24610;BME280;12758;47.890;11.694;2023-03-04T07:33:22;94112.44;;;1.07;100.00
24610;BME280;12758;47.890;11.694;2023-03-04T07:35:48;94111.31;;;1.03;100.00
24610;BME280;12758;47.890;11.694;2023-03-04T07:38:22;94112.97;;;1.14;100.00
24610;BME280;12758;47.890;11.694;2023-03-04T07:40:54;94115.72;;;1.39;100.00
24610;BME280;12758;47.890;11.694;2023-03-04T07:43:20;94117.28;;;1.30;100.00
24610;BME280;12758;47.890;11.694;2023-03-04T07:45:46;94125.06;;;1.32;100.00
24610;BME280;12758;47.890;11.694;2023-03-04T07:48:12;94121.97;;;0.92;100.00
24610;BME280;12758;47.890;11.694;2023-03-04T07:50:38;94129.50;;;1.06;100.00
24610;BME280;12758;47.890;11.694;2023-03-04T07:53:04;94122.53;;;0.95;100.00
24610;BME280;12758;47.890;11.694;2023-03-04T07:55:30;94124.69;;;0.98;100.00
24610;BME280;12758;47.890;11.694;2023-03-04T07:57:56;94125.25;;;1.10;100.00
24610;BME280;12758;47.890;11.694;2023-03-04T08:00:22;94122.06;;;1.13;100.00
24610;BME280;12758;47.890;11.694;2023-03-04T08:02:48;94126.38;;;1.19;100.00
24610;BME280;12758;47.890;11.694;2023-03-04T08:05:15;94123.38;;;1.10;100.00
24610;BME280;12758;47.890;11.694;2023-03-04T08:07:41;94123.16;;;1.17;100.00
24610;BME280;12758;47.890;11.694;2023-03-04T08:10:09;94126.97;;;1.47;100.00
24610;BME280;12758;47.890;11.694;2023-03-04T08:12:35;94135.25;;;1.35;100.00
24610;BME280;12758;47.890;11.694;2023-03-04T08:15:01;94126.66;;;1.38;100.00
24610;BME280;12758;47.890;11.694;2023-03-04T08:17:28;94129.34;;;1.43;100.00
24610;BME280;12758;47.890;11.694;2023-03-04T08:19:54;94129.09;;;1.39;100.00
24610;BME280;12758;47.890;11.694;2023-03-04T08:22:20;94137.69;;;1.52;100.00
24610;BME280;12758;47.890;11.694;2023-03-04T08:24:46;94129.13;;;1.55;100.00
24610;BME280;12758;47.890;11.694;2023-03-04T08:27:13;94131.28;;;1.58;100.00
24610;BME280;12758;47.890;11.694;2023-03-04T08:29:40;94125.91;;;1.63;100.00
24610;BME280;12758;47.890;11.694;2023-03-04T08:32:06;94138.75;;;1.56;100.00
24610;BME280;12758;47.890;11.694;2023-03-04T08:34:32;94134.50;;;1.65;100.00
24610;BME280;12758;47.890;11.694;2023-03-04T08:36:58;94131.78;;;1.60;100.00
24610;BME280;12758;47.890;11.694;2023-03-04T08:39:24;94137.66;;;1.57;100.00
24610;BME280;12758;47.890;11.694;2023-03-04T08:41:50;94128.31;;;1.59;100.00
24610;BME280;12758;47.890;11.694;2023-03-04T08:44:16;94125.91;;;1.63;100.00
24610;BME280;12758;47.890;11.694;2023-03-04T08:46:42;94132.88;;;1.64;100.00
24610;BME280;12758;47.890;11.694;2023-03-04T08:49:10;94128.34;;;1.65;100.00
24610;BME280;12758;47.890;11.694;2023-03-04T08:51:36;94128.06;;;1.66;100.00
24610;BME280;12758;47.890;11.694;2023-03-04T08:54:02;94129.13;;;1.65;100.00
24610;BME280;12758;47.890;11.694;2023-03-04T08:56:29;94134.50;;;1.70;100.00
24610;BME280;12758;47.890;11.694;2023-03-04T08:58:55;94137.72;;;1.77;100.00
24610;BME280;12758;47.890;11.694;2023-03-04T09:01:22;94134.50;;;1.75;100.00
24610;BME280;12758;47.890;11.694;2023-03-04T09:03:48;94134.50;;;1.85;100.00
24610;BME280;12758;47.890;11.694;2023-03-04T09:06:15;94132.91;;;1.90;100.00
24610;BME280;12758;47.890;11.694;2023-03-04T09:08:41;94140.38;;;2.18;100.00
24610;BME280;12758;47.890;11.694;2023-03-04T09:11:08;94137.72;;;2.23;100.00
24610;BME280;12758;47.890;11.694;2023-03-04T09:13:35;94132.94;;;2.15;100.00
24610;BME280;12758;47.890;11.694;2023-03-04T09:16:01;94138.81;;;2.12;100.00
24610;BME280;12758;47.890;11.694;2023-03-04T09:18:28;94138.78;;;2.32;100.00
24610;BME280;12758;47.890;11.694;2023-03-04T09:20:54;94133.41;;;2.43;100.00
24610;BME280;12758;47.890;11.694;2023-03-04T09:23:21;94132.09;;;2.35;100.00
24610;BME280;12758;47.890;11.694;2023-03-04T09:25:48;94129.16;;;2.21;100.00
24610;BME280;12758;47.890;11.694;2023-03-04T09:28:14;94128.63;;;2.19;100.00
24610;BME280;12758;47.890;11.694;2023-03-04T09:30:41;94129.69;;;2.13;100.00
24610;BME280;12758;47.890;11.694;2023-03-04T09:33:07;94129.44;;;2.20;100.00
24610;BME280;12758;47.890;11.694;2023-03-04T09:35:34;94142.00;;;2.45;100.00
24610;BME280;12758;47.890;11.694;2023-03-04T09:38:00;94128.03;;;2.53;100.00
24610;BME280;12758;47.890;11.694;2023-03-04T09:40:27;94128.84;;;2.64;100.00
24610;BME280;12758;47.890;11.694;2023-03-04T09:42:56;94120.25;;;2.62;100.00
24610;BME280;12758;47.890;11.694;2023-03-04T09:45:26;94125.91;;;2.60;100.00
24610;BME280;12758;47.890;11.694;2023-03-04T09:47:54;94126.94;;;2.69;100.00
24610;BME280;12758;47.890;11.694;2023-03-04T09:50:20;94124.78;;;2.71;100.00
24610;BME280;12758;47.890;11.694;2023-03-04T09:53:01;94121.56;;;2.69;100.00
24610;BME280;12758;47.890;11.694;2023-03-04T09:55:32;94126.66;;;2.66;100.00
24610;BME280;12758;47.890;11.694;2023-03-04T09:58:02;94122.69;;;2.53;100.00
24610;BME280;12758;47.890;11.694;2023-03-04T10:00:32;94118.59;;;2.76;100.00
24610;BME280;12758;47.890;11.694;2023-03-04T10:03:11;94114.56;;;2.78;100.00
24610;BME280;12758;47.890;11.694;2023-03-04T10:05:43;94114.81;;;2.87;100.00
24610;BME280;12758;47.890;11.694;2023-03-04T10:08:20;94104.84;;;3.03;100.00
24610;BME280;12758;47.890;11.694;2023-03-04T10:10:49;94110.81;;;2.90;100.00
24610;BME280;12758;47.890;11.694;2023-03-04T10:13:28;94109.63;;;3.11;100.00
24610;BME280;12758;47.890;11.694;2023-03-04T10:15:56;94114.81;;;2.92;100.00
24610;BME280;12758;47.890;11.694;2023-03-04T10:18:26;94112.31;;;3.11;100.00
24610;BME280;12758;47.890;11.694;2023-03-04T10:20:55;94101.03;;;3.14;100.00
24610;BME280;12758;47.890;11.694;2023-03-04T10:23:25;94096.22;;;3.11;100.00
24610;BME280;12758;47.890;11.694;2023-03-04T10:25:51;94096.13;;;3.32;100.00
24610;BME280;12758;47.890;11.694;2023-03-04T10:28:20;94097.44;;;3.39;100.00
24610;BME280;12758;47.890;11.694;2023-03-04T10:30:50;94089.22;;;3.20;100.00
24610;BME280;12758;47.890;11.694;2023-03-04T10:33:19;94091.72;;;3.51;100.00
24610;BME280;12758;47.890;11.694;2023-03-04T10:35:49;94097.56;;;3.63;100.00
24610;BME280;12758;47.890;11.694;2023-03-04T10:38:17;94097.03;;;3.61;100.00
24610;BME280;12758;47.890;11.694;2023-03-04T10:40:45;94090.06;;;3.60;100.00
24610;BME280;12758;47.890;11.694;2023-03-04T10:43:15;94087.38;;;3.60;100.00
24610;BME280;12758;47.890;11.694;2023-03-04T10:45:41;94088.97;;;3.61;100.00
24610;BME280;12758;47.890;11.694;2023-03-04T10:48:18;94085.81;;;3.54;100.00
24610;BME280;12758;47.890;11.694;2023-03-04T10:50:45;94085.66;;;3.35;100.00
24610;BME280;12758;47.890;11.694;2023-03-04T10:53:26;94084.41;;;3.62;100.00
24610;BME280;12758;47.890;11.694;2023-03-04T10:55:54;94077.22;;;3.57;100.00
24610;BME280;12758;47.890;11.694;2023-03-04T10:58:20;94082.97;;;3.74;100.00
24610;BME280;12758;47.890;11.694;2023-03-04T11:00:57;94072.16;;;3.85;100.00
24610;BME280;12758;47.890;11.694;2023-03-04T11:03:29;94076.41;;;3.91;100.00
24610;BME280;12758;47.890;11.694;2023-03-04T11:06:08;94070.47;;;3.60;100.00
24610;BME280;12758;47.890;11.694;2023-03-04T11:08:35;94066.41;;;4.02;100.00
24610;BME280;12758;47.890;11.694;2023-03-04T11:11:01;94070.88;;;4.11;100.00
24610;BME280;12758;47.890;11.694;2023-03-04T11:13:30;94066.09;;;4.08;100.00
24610;BME280;12758;47.890;11.694;2023-03-04T11:15:58;94073.00;;;3.85;100.00
24610;BME280;12758;47.890;11.694;2023-03-04T11:18:27;94057.00;;;3.70;100.00
24610;BME280;12758;47.890;11.694;2023-03-04T11:20:56;94066.19;;;3.98;100.00
24610;BME280;12758;47.890;11.694;2023-03-04T11:23:26;94067.09;;;4.12;100.00
24610;BME280;12758;47.890;11.694;2023-03-04T11:25:58;94065.13;;;3.94;100.00
24610;BME280;12758;47.890;11.694;2023-03-04T11:28:30;94058.06;;;4.03;100.00
24610;BME280;12758;47.890;11.694;2023-03-04T11:31:02;94057.41;;;4.16;100.00
24610;BME280;12758;47.890;11.694;2023-03-04T11:33:35;94066.06;;;4.37;100.00
24610;BME280;12758;47.890;11.694;2023-03-04T11:36:16;94056.84;;;4.19;100.00
24610;BME280;12758;47.890;11.694;2023-03-04T11:38:47;94046.66;;;4.16;100.00
24610;BME280;12758;47.890;11.694;2023-03-04T11:41:16;94045.84;;;4.45;100.00
24610;BME280;12758;47.890;11.694;2023-03-04T11:43:45;94046.81;;;4.54;100.00
24610;BME280;12758;47.890;11.694;2023-03-04T11:49:23;94044.28;;;4.87;100.00
24610;BME280;12758;47.890;11.694;2023-03-04T11:51:54;94041.03;;;4.90;100.00
24610;BME280;12758;47.890;11.694;2023-03-04T11:54:25;94046.22;;;5.05;100.00
24610;BME280;12758;47.890;11.694;2023-03-04T11:56:57;94046.44;;;5.09;100.00
24610;BME280;12758;47.890;11.694;2023-03-04T12:02:16;94051.41;;;5.21;100.00
24610;BME280;12758;47.890;11.694;2023-03-04T12:10:27;94021.63;;;4.93;100.00
24610;BME280;12758;47.890;11.694;2023-03-04T12:13:13;94029.38;;;4.76;100.00
24610;BME280;12758;47.890;11.694;2023-03-04T12:15:48;94023.78;;;4.91;100.00
24610;BME280;12758;47.890;11.694;2023-03-04T12:18:25;94027.19;;;5.21;100.00
24610;BME280;12758;47.890;11.694;2023-03-04T12:20:58;94020.00;;;5.54;100.00
24610;BME280;12758;47.890;11.694;2023-03-04T12:23:43;94024.41;;;5.64;100.00
24610;BME280;12758;47.890;11.694;2023-03-04T12:26:22;94019.34;;;5.43;100.00
24610;BME280;12758;47.890;11.694;2023-03-04T12:28:54;94015.63;;;5.58;100.00
24610;BME280;12758;47.890;11.694;2023-03-04T12:31:29;94013.66;;;5.64;100.00
24610;BME280;12758;47.890;11.694;2023-03-04T12:34:21;94017.72;;;5.61;100.00
24610;BME280;12758;47.890;11.694;2023-03-04T12:36:54;94011.47;;;5.66;100.00
24610;BME280;12758;47.890;11.694;2023-03-04T12:39:28;94007.13;;;6.02;100.00
24610;BME280;12758;47.890;11.694;2023-03-04T12:42:02;94010.09;;;5.68;100.00
24610;BME280;12758;47.890;11.694;2023-03-04T12:44:33;94003.25;;;5.57;100.00
24610;BME280;12758;47.890;11.694;2023-03-04T12:47:19;93995.47;;;5.55;100.00
24610;BME280;12758;47.890;11.694;2023-03-04T12:50:00;93995.66;;;5.78;100.00
24610;BME280;12758;47.890;11.694;2023-03-04T12:52:36;93986.97;;;5.81;100.00
24610;BME280;12758;47.890;11.694;2023-03-04T12:55:08;93982.28;;;6.05;100.00
24610;BME280;12758;47.890;11.694;2023-03-04T12:57:35;93984.81;;;5.64;100.00
24610;BME280;12758;47.890;11.694;2023-03-04T13:00:08;93986.19;;;5.80;100.00
24610;BME280;12758;47.890;11.694;2023-03-04T13:02:54;93975.91;;;5.50;100.00
24610;BME280;12758;47.890;11.694;2023-03-04T13:05:32;93976.53;;;5.60;100.00